createdAt,value
2023-01-30T00:00:05.731Z,987.29
2023-01-30T00:01:05.707Z,987.29
2023-01-30T00:02:05.800Z,987.31
2023-01-30T00:03:05.704Z,987.30
2023-01-30T00:04:05.698Z,987.28
2023-01-30T00:05:05.706Z,987.27
2023-01-30T00:06:05.675Z,987.26
2023-01-30T00:07:05.651Z,987.21
2023-01-30T00:08:05.662Z,987.15
2023-01-30T00:09:05.642Z,987.11
2023-01-30T00:10:05.635Z,987.09
2023-01-30T00:11:05.614Z,987.04
2023-01-30T00:12:05.633Z,986.99
2023-01-30T00:13:05.609Z,986.96
2023-01-30T00:14:05.599Z,986.94
2023-01-30T00:15:05.568Z,986.92
2023-01-30T00:16:05.613Z,986.92
2023-01-30T00:17:05.554Z,986.92
2023-01-30T00:18:05.566Z,986.94
2023-01-30T00:19:05.540Z,986.94
2023-01-30T00:20:05.552Z,986.95
2023-01-30T00:21:05.512Z,986.92
2023-01-30T00:22:05.540Z,986.92
2023-01-30T00:23:05.490Z,986.90
2023-01-30T00:24:05.501Z,986.87
2023-01-30T00:25:05.565Z,986.88
2023-01-30T00:26:05.488Z,986.88
2023-01-30T00:27:05.452Z,986.94
2023-01-30T00:28:05.470Z,986.99
2023-01-30T00:29:05.447Z,987.02
2023-01-30T00:30:05.472Z,987.01
2023-01-30T00:31:05.411Z,986.98
2023-01-30T00:32:05.414Z,986.96
2023-01-30T00:33:05.409Z,986.95
2023-01-30T00:34:05.411Z,986.99
2023-01-30T00:35:05.372Z,987.05
2023-01-30T00:36:05.412Z,987.10
2023-01-30T00:37:08.407Z,987.13
2023-01-30T00:38:05.376Z,987.14
2023-01-30T00:39:06.333Z,987.15
2023-01-30T00:40:05.340Z,987.18
2023-01-30T00:41:05.314Z,987.22
2023-01-30T00:42:05.330Z,987.26
2023-01-30T00:43:05.295Z,987.30
2023-01-30T00:44:05.314Z,987.34
2023-01-30T00:45:05.277Z,987.35
2023-01-30T00:46:05.353Z,987.37
2023-01-30T00:47:05.253Z,987.37
2023-01-30T00:48:05.280Z,987.37
2023-01-30T00:49:05.236Z,987.38
2023-01-30T00:50:05.251Z,987.41
2023-01-30T00:51:05.216Z,987.41
2023-01-30T00:52:05.232Z,987.44
2023-01-30T00:53:05.211Z,987.46
2023-01-30T00:54:05.221Z,987.49
2023-01-30T00:55:05.183Z,987.48
2023-01-30T00:56:05.184Z,987.48
2023-01-30T00:57:05.173Z,987.51
2023-01-30T00:58:05.175Z,987.52
2023-01-30T00:59:05.140Z,987.54
2023-01-30T01:00:05.150Z,987.55
2023-01-30T01:01:05.114Z,987.53
2023-01-30T01:02:05.181Z,987.52
2023-01-30T01:03:05.151Z,987.44
2023-01-30T01:04:05.128Z,987.42
2023-01-30T01:05:05.080Z,987.38
2023-01-30T01:06:05.081Z,987.37
2023-01-30T01:07:05.057Z,987.38
2023-01-30T01:08:05.076Z,987.40
2023-01-30T01:09:05.044Z,987.39
2023-01-30T01:10:05.056Z,987.36
2023-01-30T01:11:05.017Z,987.33
2023-01-30T01:12:05.047Z,987.31
2023-01-30T01:13:04.994Z,987.32
2023-01-30T01:14:05.036Z,987.30
2023-01-30T01:15:04.981Z,987.29
2023-01-30T01:16:04.996Z,987.26
2023-01-30T01:17:04.969Z,987.28
2023-01-30T01:18:04.977Z,987.17
2023-01-30T01:19:04.965Z,987.17
2023-01-30T01:20:04.949Z,987.14
2023-01-30T01:21:04.924Z,987.09
2023-01-30T01:22:04.922Z,987.11
2023-01-30T01:23:04.898Z,987.13
2023-01-30T01:24:04.923Z,987.11
2023-01-30T01:25:04.887Z,987.16
2023-01-30T01:26:04.899Z,987.12
2023-01-30T01:27:04.864Z,987.11
2023-01-30T01:28:04.868Z,987.10
2023-01-30T01:29:04.839Z,987.01
2023-01-30T01:30:04.868Z,987.00
2023-01-30T01:31:04.845Z,986.94
2023-01-30T01:32:04.867Z,986.94
2023-01-30T01:33:04.805Z,986.93
2023-01-30T01:34:04.808Z,986.95
2023-01-30T01:35:04.780Z,986.93
2023-01-30T01:36:04.927Z,986.94
2023-01-30T01:37:04.769Z,986.91
2023-01-30T01:38:04.777Z,986.92
2023-01-30T01:39:04.741Z,986.87
2023-01-30T01:40:04.752Z,986.85
2023-01-30T01:41:04.732Z,986.80
2023-01-30T01:42:04.737Z,986.77
2023-01-30T01:43:04.699Z,986.76
2023-01-30T01:44:04.741Z,986.62
2023-01-30T01:45:04.758Z,986.56
2023-01-30T01:46:04.758Z,986.55
2023-01-30T01:47:04.656Z,986.51
2023-01-30T01:48:04.678Z,986.49
2023-01-30T01:49:04.639Z,986.54
2023-01-30T01:50:04.643Z,986.57
2023-01-30T01:51:04.625Z,986.57
2023-01-30T01:52:04.625Z,986.50
2023-01-30T01:53:04.605Z,986.49
2023-01-30T01:54:04.601Z,986.48
2023-01-30T01:55:04.585Z,986.51
2023-01-30T01:56:04.606Z,986.55
2023-01-30T01:57:04.563Z,986.54
2023-01-30T01:58:04.563Z,986.51
2023-01-30T01:59:04.538Z,986.48
2023-01-30T02:00:04.561Z,986.41
2023-01-30T02:01:04.607Z,986.40
2023-01-30T02:02:04.604Z,986.30
2023-01-30T02:03:04.497Z,986.27
2023-01-30T02:04:04.524Z,986.30
2023-01-30T02:05:04.489Z,986.33
2023-01-30T02:06:04.482Z,986.34
2023-01-30T02:07:04.468Z,986.32
2023-01-30T02:08:04.509Z,986.31
2023-01-30T02:09:04.437Z,986.26
2023-01-30T02:10:04.457Z,986.25
2023-01-30T02:11:04.419Z,986.12
2023-01-30T02:12:04.444Z,986.10
2023-01-30T02:13:04.406Z,986.06
2023-01-30T02:14:04.432Z,986.07
2023-01-30T02:15:04.377Z,986.02
2023-01-30T02:16:04.394Z,985.99
2023-01-30T02:17:04.370Z,986.04
2023-01-30T02:18:04.356Z,986.06
2023-01-30T02:19:04.337Z,985.98
2023-01-30T02:20:04.353Z,985.92
2023-01-30T02:21:04.312Z,985.89
2023-01-30T02:22:04.340Z,985.82
2023-01-30T02:23:04.303Z,985.78
2023-01-30T02:24:04.310Z,985.79
2023-01-30T02:25:04.304Z,985.75
2023-01-30T02:26:04.281Z,985.72
2023-01-30T02:27:04.262Z,985.68
2023-01-30T02:28:04.269Z,985.58
2023-01-30T02:29:04.232Z,985.52
2023-01-30T02:30:04.253Z,985.46
2023-01-30T02:31:04.276Z,985.41
2023-01-30T02:32:04.246Z,985.43
2023-01-30T02:33:04.194Z,985.38
2023-01-30T02:34:04.201Z,985.36
2023-01-30T02:35:04.170Z,985.41
2023-01-30T02:36:04.180Z,985.51
2023-01-30T02:37:04.151Z,985.60
2023-01-30T02:38:04.185Z,985.66
2023-01-30T02:39:04.134Z,985.68
2023-01-30T02:40:04.145Z,985.72
2023-01-30T02:41:04.116Z,985.73
2023-01-30T02:42:04.128Z,985.74
2023-01-30T02:43:04.099Z,985.71
2023-01-30T02:44:04.096Z,985.64
2023-01-30T02:45:04.071Z,985.69
2023-01-30T02:46:04.138Z,985.73
2023-01-30T02:47:04.057Z,985.70
2023-01-30T02:48:04.076Z,985.68
2023-01-30T02:49:04.028Z,985.61
2023-01-30T02:50:04.045Z,985.57
2023-01-30T02:51:04.014Z,985.56
2023-01-30T02:52:04.034Z,985.52
2023-01-30T02:53:03.988Z,985.51
2023-01-30T02:54:04.017Z,985.61
2023-01-30T02:55:03.995Z,985.61
2023-01-30T02:56:03.985Z,985.58
2023-01-30T02:57:03.945Z,985.59
2023-01-30T02:58:03.951Z,985.54
2023-01-30T02:59:03.938Z,985.47
2023-01-30T03:00:03.942Z,985.47
2023-01-30T03:01:03.988Z,985.45
2023-01-30T03:02:03.921Z,985.45
2023-01-30T03:03:03.885Z,985.43
2023-01-30T03:04:03.891Z,985.41
2023-01-30T03:05:03.880Z,985.32
2023-01-30T03:06:03.880Z,985.26
2023-01-30T03:07:03.847Z,985.26
2023-01-30T03:08:03.865Z,985.27
2023-01-30T03:09:03.843Z,985.25
2023-01-30T03:10:03.833Z,985.22
2023-01-30T03:11:03.810Z,985.28
2023-01-30T03:12:03.821Z,985.24
2023-01-30T03:13:03.788Z,985.19
2023-01-30T03:14:03.805Z,985.18
2023-01-30T03:15:03.773Z,985.10
2023-01-30T03:16:03.796Z,985.04
2023-01-30T03:17:03.742Z,984.97
2023-01-30T03:18:03.752Z,985.05
2023-01-30T03:19:03.753Z,985.00
2023-01-30T03:20:03.743Z,984.92
2023-01-30T03:21:03.703Z,984.87
2023-01-30T03:22:03.733Z,984.84
2023-01-30T03:23:03.687Z,984.82
2023-01-30T03:24:03.703Z,984.83
2023-01-30T03:25:03.694Z,984.79
2023-01-30T03:26:03.670Z,984.82
2023-01-30T03:27:03.649Z,984.79
2023-01-30T03:28:03.668Z,984.76
2023-01-30T03:29:03.638Z,984.72
2023-01-30T03:30:03.629Z,984.79
2023-01-30T03:31:03.689Z,984.84
2023-01-30T03:32:03.595Z,984.82
2023-01-30T03:33:03.602Z,984.83
2023-01-30T03:34:03.590Z,984.84
2023-01-30T03:35:03.589Z,984.84
2023-01-30T03:36:03.552Z,984.82
2023-01-30T03:37:03.570Z,984.79
2023-01-30T03:38:03.532Z,984.77
2023-01-30T03:39:03.532Z,984.76
2023-01-30T03:40:03.527Z,984.78
2023-01-30T03:41:03.528Z,984.75
2023-01-30T03:42:03.490Z,984.74
2023-01-30T03:43:03.502Z,984.76
2023-01-30T03:44:03.474Z,984.75
2023-01-30T03:45:03.491Z,984.76
2023-01-30T03:46:03.492Z,984.71
2023-01-30T03:47:03.473Z,984.65
2023-01-30T03:48:03.441Z,984.62
2023-01-30T03:49:03.431Z,984.57
2023-01-30T03:50:03.418Z,984.58
2023-01-30T03:51:03.437Z,984.61
2023-01-30T03:52:03.400Z,984.63
2023-01-30T03:53:03.396Z,984.63
2023-01-30T03:54:03.373Z,984.57
2023-01-30T03:55:03.376Z,984.57
2023-01-30T03:56:03.429Z,984.57
2023-01-30T03:57:03.402Z,984.57
2023-01-30T03:58:03.360Z,984.58
2023-01-30T03:59:03.344Z,984.59
2023-01-30T04:00:03.311Z,984.62
2023-01-30T04:01:03.350Z,984.66
2023-01-30T04:02:03.326Z,984.66
2023-01-30T04:03:03.302Z,984.68
2023-01-30T04:04:03.281Z,984.69
2023-01-30T04:05:03.272Z,984.69
2023-01-30T04:06:03.243Z,984.69
2023-01-30T04:07:03.257Z,984.66
2023-01-30T04:08:03.226Z,984.66
2023-01-30T04:09:03.247Z,984.63
2023-01-30T04:10:03.227Z,984.64
2023-01-30T04:11:03.208Z,984.67
2023-01-30T04:12:03.186Z,984.68
2023-01-30T04:13:03.190Z,984.68
2023-01-30T04:14:03.167Z,984.69
2023-01-30T04:15:03.188Z,984.71
2023-01-30T04:16:03.228Z,984.78
2023-01-30T04:17:03.155Z,984.74
2023-01-30T04:18:03.130Z,984.77
2023-01-30T04:19:03.143Z,984.76
2023-01-30T04:20:03.119Z,984.78
2023-01-30T04:21:03.137Z,984.75
2023-01-30T04:22:03.086Z,984.77
2023-01-30T04:23:03.128Z,984.74
2023-01-30T04:24:03.062Z,984.70
2023-01-30T04:25:03.099Z,984.71
2023-01-30T04:26:03.055Z,984.66
2023-01-30T04:27:03.062Z,984.67
2023-01-30T04:28:03.021Z,984.68
2023-01-30T04:29:03.029Z,984.68
2023-01-30T04:30:03.010Z,984.66
2023-01-30T04:31:03.090Z,984.66
2023-01-30T04:32:02.980Z,984.66
2023-01-30T04:33:03.000Z,984.67
2023-01-30T04:34:02.973Z,984.64
2023-01-30T04:35:02.979Z,984.67
2023-01-30T04:36:02.944Z,984.70
2023-01-30T04:37:02.950Z,984.68
2023-01-30T04:38:02.919Z,984.61
2023-01-30T04:39:02.938Z,984.60
2023-01-30T04:40:02.897Z,984.58
2023-01-30T04:41:02.920Z,984.57
2023-01-30T04:42:02.878Z,984.61
2023-01-30T04:43:02.887Z,984.58
2023-01-30T04:44:02.867Z,984.53
2023-01-30T04:45:02.889Z,984.52
2023-01-30T04:46:02.843Z,984.50
2023-01-30T04:47:02.861Z,984.55
2023-01-30T04:48:02.833Z,984.52
2023-01-30T04:49:02.833Z,984.52
2023-01-30T04:50:02.817Z,984.55
2023-01-30T04:51:02.803Z,984.50
2023-01-30T04:52:02.776Z,984.51
2023-01-30T04:53:02.784Z,984.43
2023-01-30T04:54:02.757Z,984.48
2023-01-30T04:55:02.811Z,984.42
2023-01-30T04:56:02.736Z,984.50
2023-01-30T04:57:02.757Z,984.37
2023-01-30T04:58:02.716Z,984.27
2023-01-30T04:59:02.733Z,984.22
2023-01-30T05:00:02.720Z,984.20
2023-01-30T05:01:02.800Z,984.19
2023-01-30T05:02:02.726Z,984.22
2023-01-30T05:03:02.684Z,984.13
2023-01-30T05:04:02.663Z,984.16
2023-01-30T05:05:02.688Z,984.14
2023-01-30T05:06:02.642Z,984.16
2023-01-30T05:07:02.651Z,984.21
2023-01-30T05:08:02.620Z,984.23
2023-01-30T05:09:02.651Z,984.22
2023-01-30T05:10:02.609Z,984.28
2023-01-30T05:11:02.611Z,984.24
2023-01-30T05:12:02.574Z,984.23
2023-01-30T05:13:02.598Z,984.24
2023-01-30T05:14:02.560Z,984.26
2023-01-30T05:15:02.575Z,984.26
2023-01-30T05:16:02.553Z,984.27
2023-01-30T05:17:02.578Z,984.29
2023-01-30T05:18:02.512Z,984.24
2023-01-30T05:19:02.525Z,984.23
2023-01-30T05:20:02.491Z,984.20
2023-01-30T05:21:02.524Z,984.18
2023-01-30T05:22:02.487Z,984.10
2023-01-30T05:23:02.483Z,984.09
2023-01-30T05:24:02.453Z,984.09
2023-01-30T05:25:02.479Z,984.05
2023-01-30T05:26:02.470Z,984.08
2023-01-30T05:27:02.461Z,984.02
2023-01-30T05:28:02.428Z,984.05
2023-01-30T05:29:02.420Z,984.06
2023-01-30T05:30:02.402Z,984.08
2023-01-30T05:31:02.550Z,984.09
2023-01-30T05:32:02.376Z,984.11
2023-01-30T05:33:02.390Z,984.13
2023-01-30T05:34:02.368Z,984.12
2023-01-30T05:35:02.360Z,984.07
2023-01-30T05:36:02.335Z,984.12
2023-01-30T05:37:02.345Z,984.13
2023-01-30T05:38:02.326Z,984.08
2023-01-30T05:39:02.319Z,984.09
2023-01-30T05:40:02.311Z,984.09
2023-01-30T05:41:02.323Z,984.12
2023-01-30T05:42:02.298Z,984.11
2023-01-30T05:43:02.298Z,984.11
2023-01-30T05:44:02.271Z,984.12
2023-01-30T05:45:02.268Z,984.11
2023-01-30T05:46:02.235Z,984.08
2023-01-30T05:47:02.256Z,984.10
2023-01-30T05:48:02.233Z,984.02
2023-01-30T05:49:02.231Z,984.06
2023-01-30T05:50:02.199Z,984.07
2023-01-30T05:51:02.207Z,984.00
2023-01-30T05:52:02.182Z,983.97
2023-01-30T05:53:02.192Z,984.00
2023-01-30T05:54:02.163Z,983.97
2023-01-30T05:55:02.176Z,983.99
2023-01-30T05:56:02.134Z,983.92
2023-01-30T05:57:02.174Z,983.89
2023-01-30T05:58:02.128Z,983.87
2023-01-30T05:59:02.146Z,983.82
2023-01-30T06:00:02.097Z,983.83
2023-01-30T06:01:02.124Z,983.77
2023-01-30T06:02:02.077Z,983.78
2023-01-30T06:03:02.144Z,983.81
2023-01-30T06:04:02.113Z,983.79
2023-01-30T06:05:02.094Z,983.80
2023-01-30T06:06:02.054Z,983.83
2023-01-30T06:07:02.074Z,983.78
2023-01-30T06:08:02.013Z,983.84
2023-01-30T06:09:02.046Z,983.80
2023-01-30T06:10:01.993Z,983.82
2023-01-30T06:11:02.008Z,983.85
2023-01-30T06:12:01.982Z,983.87
2023-01-30T06:13:01.979Z,983.89
2023-01-30T06:14:01.969Z,983.98
2023-01-30T06:15:01.979Z,983.96
2023-01-30T06:16:01.985Z,983.96
2023-01-30T06:17:01.996Z,983.98
2023-01-30T06:18:01.913Z,983.96
2023-01-30T06:19:01.937Z,983.97
2023-01-30T06:20:01.911Z,983.99
2023-01-30T06:21:01.915Z,983.98
2023-01-30T06:22:01.875Z,983.97
2023-01-30T06:23:01.897Z,983.95
2023-01-30T06:24:01.859Z,983.90
2023-01-30T06:25:01.894Z,983.86
2023-01-30T06:26:03.684Z,983.89
2023-01-30T06:27:01.857Z,983.85
2023-01-30T06:28:01.818Z,983.86
2023-01-30T06:29:01.836Z,983.89
2023-01-30T06:30:01.802Z,983.91
2023-01-30T06:31:02.025Z,983.90
2023-01-30T06:32:01.777Z,983.92
2023-01-30T06:33:01.759Z,983.95
2023-01-30T06:34:01.766Z,983.97
2023-01-30T06:35:01.773Z,983.96
2023-01-30T06:36:01.692Z,984.00
2023-01-30T06:37:01.713Z,984.04
2023-01-30T06:38:01.653Z,984.07
2023-01-30T06:39:01.679Z,984.14
2023-01-30T06:40:01.709Z,984.14
2023-01-30T06:41:01.720Z,984.11
2023-01-30T06:42:01.674Z,984.11
2023-01-30T06:43:01.631Z,984.08
2023-01-30T06:44:01.594Z,984.11
2023-01-30T06:45:01.628Z,984.09
2023-01-30T06:46:01.628Z,984.08
2023-01-30T06:47:01.590Z,984.03
2023-01-30T06:48:01.622Z,984.02
2023-01-30T06:49:01.628Z,983.97
2023-01-30T06:50:01.591Z,983.97
2023-01-30T06:51:01.577Z,983.98
2023-01-30T06:52:01.561Z,984.02
2023-01-30T06:53:01.558Z,984.02
2023-01-30T06:54:01.586Z,984.06
2023-01-30T06:55:01.540Z,984.00
2023-01-30T06:56:01.490Z,983.95
2023-01-30T06:57:01.498Z,983.95
2023-01-30T06:58:01.473Z,983.98
2023-01-30T06:59:01.486Z,984.00
2023-01-30T07:00:01.439Z,983.94
2023-01-30T07:01:01.462Z,983.92
2023-01-30T07:02:01.440Z,983.96
2023-01-30T07:03:01.435Z,984.00
2023-01-30T07:04:01.415Z,983.95
2023-01-30T07:05:01.416Z,984.01
2023-01-30T07:06:01.407Z,983.94
2023-01-30T07:07:01.389Z,984.01
2023-01-30T07:08:01.362Z,983.99
2023-01-30T07:09:01.376Z,984.04
2023-01-30T07:10:08.335Z,983.91
2023-01-30T07:11:01.372Z,983.95
2023-01-30T07:12:01.324Z,983.98
2023-01-30T07:13:01.325Z,983.86
2023-01-30T07:14:01.303Z,983.92
2023-01-30T07:15:01.305Z,983.91
2023-01-30T07:16:01.301Z,983.90
2023-01-30T07:17:01.338Z,983.85
2023-01-30T07:18:01.267Z,983.82
2023-01-30T07:19:01.280Z,983.90
2023-01-30T07:20:01.245Z,983.86
2023-01-30T07:21:01.258Z,983.88
2023-01-30T07:22:03.100Z,983.86
2023-01-30T07:23:01.232Z,983.80
2023-01-30T07:24:01.224Z,983.83
2023-01-30T07:25:01.204Z,983.80
2023-01-30T07:26:01.180Z,983.76
2023-01-30T07:27:01.185Z,983.77
2023-01-30T07:28:01.194Z,983.81
2023-01-30T07:29:01.193Z,983.75
2023-01-30T07:30:01.166Z,983.77
2023-01-30T07:31:01.230Z,983.73
2023-01-30T07:32:01.164Z,983.82
2023-01-30T07:33:01.153Z,983.69
2023-01-30T07:34:01.100Z,983.66
2023-01-30T07:35:01.133Z,983.65
2023-01-30T07:36:01.082Z,983.57
2023-01-30T07:37:01.088Z,983.55
2023-01-30T07:38:01.071Z,983.56
2023-01-30T07:39:01.111Z,983.54
2023-01-30T07:40:01.046Z,983.57
2023-01-30T07:41:01.060Z,983.56
2023-01-30T07:42:01.025Z,983.52
2023-01-30T07:43:01.076Z,983.48
2023-01-30T07:44:01.009Z,983.48
2023-01-30T07:45:00.993Z,983.47
2023-01-30T07:46:01.008Z,983.39
2023-01-30T07:47:01.055Z,983.34
2023-01-30T07:48:00.981Z,983.34
2023-01-30T07:49:00.975Z,983.37
2023-01-30T07:50:00.971Z,983.34
2023-01-30T07:51:00.935Z,983.31
2023-01-30T07:52:00.949Z,983.27
2023-01-30T07:53:00.912Z,983.25
2023-01-30T07:54:00.924Z,983.39
2023-01-30T07:55:01.724Z,983.20
2023-01-30T07:56:00.923Z,983.16
2023-01-30T07:57:00.871Z,983.18
2023-01-30T07:58:00.894Z,983.24
2023-01-30T07:59:00.853Z,983.20
2023-01-30T08:00:00.890Z,983.21
2023-01-30T08:01:00.873Z,983.16
2023-01-30T08:02:00.844Z,983.07
2023-01-30T08:03:00.817Z,983.14
2023-01-30T08:04:00.835Z,983.15
2023-01-30T08:05:00.870Z,983.15
2023-01-30T08:06:00.844Z,983.14
2023-01-30T08:07:00.789Z,983.09
2023-01-30T08:08:00.779Z,983.10
2023-01-30T08:09:00.751Z,983.08
2023-01-30T08:10:00.773Z,983.04
2023-01-30T08:11:00.729Z,983.08
2023-01-30T08:12:00.762Z,983.03
2023-01-30T08:13:00.715Z,983.00
2023-01-30T08:14:00.720Z,983.00
2023-01-30T08:15:00.713Z,983.04
2023-01-30T08:16:00.700Z,983.00
2023-01-30T08:17:00.674Z,983.08
2023-01-30T08:18:00.720Z,983.08
2023-01-30T08:19:00.653Z,983.09
2023-01-30T08:20:00.671Z,983.07
2023-01-30T08:21:00.636Z,983.09
2023-01-30T08:22:00.654Z,983.03
2023-01-30T08:23:00.633Z,982.98
2023-01-30T08:24:01.443Z,983.07
2023-01-30T08:25:00.631Z,982.99
2023-01-30T08:26:00.639Z,982.97
2023-01-30T08:27:00.619Z,983.09
2023-01-30T08:28:00.623Z,982.96
2023-01-30T08:29:00.591Z,983.00
2023-01-30T08:30:00.584Z,983.00
2023-01-30T08:31:00.621Z,982.93
2023-01-30T08:32:00.572Z,982.88
2023-01-30T08:33:00.515Z,982.94
2023-01-30T08:34:00.523Z,982.95
2023-01-30T08:35:00.511Z,982.96
2023-01-30T08:36:00.508Z,983.00
2023-01-30T08:37:00.476Z,982.97
2023-01-30T08:38:00.513Z,982.86
2023-01-30T08:39:00.461Z,982.87
2023-01-30T08:40:00.473Z,982.92
2023-01-30T08:41:00.443Z,982.83
2023-01-30T08:42:00.453Z,982.78
2023-01-30T08:43:00.414Z,982.83
2023-01-30T08:44:00.446Z,982.90
2023-01-30T08:45:00.411Z,982.81
2023-01-30T08:46:00.400Z,982.84
2023-01-30T08:47:00.388Z,982.83
2023-01-30T08:48:00.384Z,982.87
2023-01-30T08:49:00.358Z,982.88
2023-01-30T08:50:00.386Z,982.80
2023-01-30T08:51:00.342Z,982.73
2023-01-30T08:52:00.345Z,982.81
2023-01-30T08:53:00.320Z,982.84
2023-01-30T08:54:00.356Z,982.85
2023-01-30T08:55:00.298Z,982.79
2023-01-30T08:56:00.332Z,982.80
2023-01-30T08:57:00.281Z,982.77
2023-01-30T08:58:00.288Z,982.81
2023-01-30T08:59:00.271Z,982.80
2023-01-30T09:00:00.265Z,982.82
2023-01-30T09:01:00.269Z,982.79
2023-01-30T09:02:00.239Z,982.85
2023-01-30T09:03:00.224Z,982.85
2023-01-30T09:04:00.234Z,982.84
2023-01-30T09:05:00.194Z,982.87
2023-01-30T09:06:00.220Z,982.90
2023-01-30T09:07:00.178Z,982.84
2023-01-30T09:08:00.208Z,982.91
2023-01-30T09:09:00.168Z,982.88
2023-01-30T09:10:00.187Z,982.90
2023-01-30T09:11:00.138Z,982.91
2023-01-30T09:12:00.150Z,982.90
2023-01-30T09:13:00.146Z,982.88
2023-01-30T09:14:00.139Z,982.89
2023-01-30T09:15:00.118Z,982.85
2023-01-30T09:16:00.116Z,982.80
2023-01-30T09:17:00.115Z,982.78
2023-01-30T09:18:00.111Z,982.81
2023-01-30T09:19:00.063Z,982.79
2023-01-30T09:20:00.113Z,982.76
2023-01-30T09:21:00.044Z,982.73
2023-01-30T09:22:00.049Z,982.68
2023-01-30T09:23:00.017Z,982.77
2023-01-30T09:24:00.028Z,982.64
2023-01-30T09:25:00.007Z,982.59
2023-01-30T09:25:59.998Z,982.66
2023-01-30T09:27:00.005Z,982.72
2023-01-30T09:27:59.996Z,982.72
2023-01-30T09:28:59.952Z,982.74
2023-01-30T09:29:59.971Z,982.83
2023-01-30T09:31:00.031Z,982.72
2023-01-30T09:31:59.953Z,982.70
2023-01-30T09:32:59.912Z,982.70
2023-01-30T09:33:59.930Z,982.64
2023-01-30T09:34:59.905Z,982.60
2023-01-30T09:35:59.903Z,982.57
2023-01-30T09:36:59.880Z,982.55
2023-01-30T09:38:06.391Z,982.57
2023-01-30T09:38:59.866Z,982.57
2023-01-30T09:39:59.886Z,982.57
2023-01-30T09:40:59.842Z,982.57
2023-01-30T09:41:59.853Z,982.60
2023-01-30T09:42:59.817Z,982.56
2023-01-30T09:43:59.848Z,982.64
2023-01-30T09:44:59.809Z,982.69
2023-01-30T09:45:59.814Z,982.67
2023-01-30T09:46:59.804Z,982.67
2023-01-30T09:48:01.528Z,982.68
2023-01-30T09:48:59.762Z,982.67
2023-01-30T09:49:59.759Z,982.66
2023-01-30T09:51:00.321Z,982.68
2023-01-30T09:51:59.765Z,982.68
2023-01-30T09:52:59.723Z,982.62
2023-01-30T09:54:01.108Z,982.59
2023-01-30T09:54:59.693Z,982.58
2023-01-30T09:55:59.728Z,982.50
2023-01-30T09:56:59.674Z,982.50
2023-01-30T09:57:59.714Z,982.51
2023-01-30T09:58:59.677Z,982.48
2023-01-30T09:59:59.681Z,982.49
2023-01-30T10:00:59.650Z,982.44
2023-01-30T10:01:59.675Z,982.49
2023-01-30T10:02:59.623Z,982.40
2023-01-30T10:03:59.631Z,982.46
2023-01-30T10:05:02.114Z,982.45
2023-01-30T10:05:59.603Z,982.42
2023-01-30T10:06:59.593Z,982.41
2023-01-30T10:07:59.636Z,982.40
2023-01-30T10:08:59.595Z,982.36
2023-01-30T10:09:59.560Z,982.38
2023-01-30T10:11:09.608Z,982.39
2023-01-30T10:11:59.553Z,982.32
2023-01-30T10:12:59.530Z,982.39
2023-01-30T10:13:59.530Z,982.31
2023-01-30T10:14:59.507Z,982.31
2023-01-30T10:15:59.565Z,982.40
2023-01-30T10:16:59.510Z,982.40
2023-01-30T10:17:59.537Z,982.42
2023-01-30T10:18:59.473Z,982.36
2023-01-30T10:19:59.481Z,982.39
2023-01-30T10:20:59.435Z,982.42
2023-01-30T10:21:59.436Z,982.43
2023-01-30T10:22:59.426Z,982.43
2023-01-30T10:23:59.430Z,982.34
2023-01-30T10:24:59.395Z,982.29
2023-01-30T10:25:59.422Z,982.30
2023-01-30T10:26:59.372Z,982.21
2023-01-30T10:27:59.372Z,982.27
2023-01-30T10:29:07.250Z,982.25
2023-01-30T10:29:59.365Z,982.30
2023-01-30T10:30:59.391Z,982.27
2023-01-30T10:31:59.343Z,982.21
2023-01-30T10:32:59.314Z,982.22
2023-01-30T10:33:59.339Z,982.25
2023-01-30T10:34:59.291Z,982.31
2023-01-30T10:35:59.292Z,982.29
2023-01-30T10:36:59.266Z,982.28
2023-01-30T10:37:59.283Z,982.25
2023-01-30T10:38:59.266Z,982.26
2023-01-30T10:39:59.264Z,982.26
2023-01-30T10:40:59.228Z,982.30
2023-01-30T10:41:59.244Z,982.26
2023-01-30T10:42:59.214Z,982.28
2023-01-30T10:43:59.262Z,982.24
2023-01-30T10:44:59.188Z,982.27
2023-01-30T10:45:59.206Z,982.33
2023-01-30T10:46:59.163Z,982.26
2023-01-30T10:47:59.180Z,982.28
2023-01-30T10:48:59.161Z,982.24
2023-01-30T10:49:59.167Z,982.28
2023-01-30T10:50:59.128Z,982.31
2023-01-30T10:51:59.142Z,982.33
2023-01-30T10:52:59.107Z,982.37
2023-01-30T10:53:59.141Z,982.36
2023-01-30T10:54:59.089Z,982.34
2023-01-30T10:55:59.100Z,982.33
2023-01-30T10:56:59.063Z,982.34
2023-01-30T10:57:59.073Z,982.38
2023-01-30T10:58:59.071Z,982.36
2023-01-30T10:59:59.127Z,982.29
2023-01-30T11:00:59.033Z,982.33
2023-01-30T11:01:59.111Z,982.26
2023-01-30T11:02:59.012Z,982.25
2023-01-30T11:03:59.041Z,982.21
2023-01-30T11:04:58.986Z,982.20
2023-01-30T11:05:59.014Z,982.18
2023-01-30T11:06:58.971Z,982.06
2023-01-30T11:07:58.967Z,982.07
2023-01-30T11:08:58.952Z,982.13
2023-01-30T11:09:58.978Z,982.12
2023-01-30T11:10:58.928Z,981.97
2023-01-30T11:11:58.944Z,982.05
2023-01-30T11:12:58.910Z,982.07
2023-01-30T11:13:58.945Z,982.10
2023-01-30T11:14:58.915Z,982.00
2023-01-30T11:15:58.935Z,981.98
2023-01-30T11:16:58.870Z,982.03
2023-01-30T11:18:13.110Z,982.08
2023-01-30T11:19:57.853Z,982.01
2023-01-30T11:20:58.838Z,982.05
2023-01-30T11:21:58.849Z,982.05
2023-01-30T11:22:58.804Z,982.06
2023-01-30T11:23:58.824Z,982.09
2023-01-30T11:24:58.778Z,982.10
2023-01-30T11:26:10.419Z,982.06
2023-01-30T11:26:58.856Z,982.09
2023-01-30T11:27:58.780Z,982.04
2023-01-30T11:28:58.747Z,982.03
2023-01-30T11:29:58.749Z,981.97
2023-01-30T11:30:58.785Z,982.06
2023-01-30T11:31:58.875Z,982.09
2023-01-30T11:32:58.714Z,982.11
2023-01-30T11:33:58.707Z,982.13
2023-01-30T11:34:58.698Z,982.04
2023-01-30T11:35:58.701Z,982.02
2023-01-30T11:36:58.655Z,981.93
2023-01-30T11:37:58.707Z,981.96
2023-01-30T11:38:58.650Z,981.91
2023-01-30T11:39:58.659Z,981.91
2023-01-30T11:40:58.619Z,981.98
2023-01-30T11:41:58.631Z,982.04
2023-01-30T11:42:58.639Z,981.98
2023-01-30T11:43:58.621Z,982.00
2023-01-30T11:45:10.718Z,981.97
2023-01-30T11:45:58.622Z,981.98
2023-01-30T11:46:58.560Z,981.98
2023-01-30T11:47:59.374Z,981.97
2023-01-30T11:49:02.985Z,981.98
2023-01-30T11:50:21.054Z,982.03
2023-01-30T11:50:58.523Z,982.08
2023-01-30T11:51:58.532Z,982.01
2023-01-30T11:52:58.521Z,982.01
2023-01-30T11:53:58.503Z,981.94
2023-01-30T11:54:58.534Z,981.97
2023-01-30T11:56:05.280Z,981.96
2023-01-30T11:56:58.455Z,981.93
2023-01-30T11:57:58.458Z,981.93
2023-01-30T11:58:58.470Z,981.92
2023-01-30T11:59:58.457Z,981.98
2023-01-30T12:00:58.442Z,982.01
2023-01-30T12:01:58.423Z,982.10
2023-01-30T12:02:58.462Z,982.01
2023-01-30T12:03:58.397Z,982.11
2023-01-30T12:04:58.385Z,982.02
2023-01-30T12:05:58.364Z,982.06
2023-01-30T12:06:58.368Z,982.09
2023-01-30T12:07:58.338Z,982.16
2023-01-30T12:08:58.374Z,982.08
2023-01-30T12:09:58.329Z,982.09
2023-01-30T12:10:58.333Z,982.06
2023-01-30T12:11:58.293Z,982.01
2023-01-30T12:12:58.316Z,982.02
2023-01-30T12:13:58.307Z,981.96
2023-01-30T12:14:58.296Z,981.94
2023-01-30T12:15:58.251Z,982.07
2023-01-30T12:16:58.281Z,981.94
2023-01-30T12:17:58.235Z,981.98
2023-01-30T12:18:58.250Z,981.99
2023-01-30T12:19:58.209Z,981.89
2023-01-30T12:20:58.241Z,981.90
2023-01-30T12:21:58.214Z,981.94
2023-01-30T12:22:58.191Z,981.86
2023-01-30T12:23:58.179Z,981.99
2023-01-30T12:24:58.185Z,981.90
2023-01-30T12:25:58.156Z,981.99
2023-01-30T12:26:58.156Z,982.01
2023-01-30T12:28:02.541Z,981.97
2023-01-30T12:28:58.123Z,981.96